Time;durP1;ratioP1;P1;durP2;ratioP2;P2;SDS_P1;SDS_P2;PMS_P1;PMS_P2;Temp;Humidity;BMP_temperature;BMP_pressure;BME280_temperature;BME280_humidity;BME280_pressure;Samples;Min_cycle;Max_cycle;Signal;HPM_P1;HPM_P2
2021/05/04 00:02:15;;;;;;;29.77;12.10;;;;;;;3.39;68.29;100295.06;125788;1101;22825;-55
2021/05/04 00:04:45;;;;;;;34.13;11.83;;;;;;;3.36;68.52;100284.88;125774;1101;22764;-58
2021/05/04 00:07:14;;;;;;;26.50;11.67;;;;;;;3.32;68.49;100284.97;125663;1101;22758;-58
2021/05/04 00:09:46;;;;;;;31.05;10.90;;;;;;;3.29;68.52;100281.07;125765;1097;27316;-57
2021/05/04 00:12:15;;;;;;;30.25;11.40;;;;;;;3.26;68.63;100273.67;125953;1101;24593;-56
2021/05/04 00:14:45;;;;;;;28.27;11.87;;;;;;;3.25;68.78;100271.31;125720;1101;22761;-57
2021/05/04 00:17:14;;;;;;;29.38;10.90;;;;;;;3.24;68.88;100286.33;125880;1101;22749;-56
2021/05/04 00:19:44;;;;;;;28.97;11.90;;;;;;;3.24;68.85;100286.33;125868;1102;22799;-58
2021/05/04 00:22:13;;;;;;;28.13;10.70;;;;;;;3.24;69.00;100283.58;125598;1096;22831;-55
2021/05/04 00:24:42;;;;;;;26.13;10.70;;;;;;;3.24;69.00;100280.81;125555;1104;22831;-56
2021/05/04 00:27:11;;;;;;;27.83;10.27;;;;;;;3.22;68.98;100280.47;125812;1101;22823;-57
2021/05/04 00:29:41;;;;;;;27.40;10.40;;;;;;;3.19;69.08;100281.31;125745;1097;25391;-57
2021/05/04 00:32:10;;;;;;;27.17;10.23;;;;;;;3.18;69.17;100266.77;126008;1101;24433;-57
2021/05/04 00:34:40;;;;;;;28.67;10.23;;;;;;;3.17;69.12;100267.95;125787;1097;26800;-56
2021/05/04 00:37:11;;;;;;;28.33;10.77;;;;;;;3.16;69.21;100262.88;125699;1101;22904;-57
2021/05/04 00:39:40;;;;;;;24.35;8.90;;;;;;;3.15;69.36;100270.36;125969;1096;24463;-55
2021/05/04 00:42:10;;;;;;;27.87;9.67;;;;;;;3.13;69.42;100256.22;125790;1101;22907;-55
2021/05/04 00:44:39;;;;;;;24.75;7.93;;;;;;;3.12;69.38;100259.42;126112;1101;22809;-57
2021/05/04 00:47:09;;;;;;;22.90;8.67;;;;;;;3.11;69.47;100255.09;125696;1096;24973;-54
2021/05/04 00:49:38;;;;;;;23.40;7.83;;;;;;;3.10;69.44;100257.06;125749;1096;22871;-57
2021/05/04 00:52:08;;;;;;;27.10;7.67;;;;;;;3.09;69.38;100254.74;125794;1101;22768;-56
2021/05/04 00:54:38;;;;;;;22.53;7.10;;;;;;;3.09;69.78;100246.47;125811;1101;22757;-57
2021/05/04 00:57:11;;;;;;;21.05;6.30;;;;;;;3.10;69.62;100248.03;125838;1101;24593;-55
2021/05/04 00:59:41;;;;;;;24.17;6.93;;;;;;;3.11;69.68;100246.81;125868;1101;22771;-56
2021/05/04 01:02:13;;;;;;;23.02;6.68;;;;;;;3.11;69.45;100247.59;125923;1096;22761;-56
2021/05/04 01:04:44;;;;;;;21.57;5.83;;;;;;;3.11;69.55;100235.78;125800;1096;22873;-57
2021/05/04 01:07:15;;;;;;;18.05;5.40;;;;;;;3.11;69.76;100238.55;125918;1101;22869;-57
2021/05/04 01:09:46;;;;;;;18.47;5.10;;;;;;;3.13;69.64;100236.13;125780;1101;22741;-55
2021/05/04 01:12:16;;;;;;;20.33;5.83;;;;;;;3.14;69.89;100232.18;125830;1096;26282;-56
2021/05/04 01:14:48;;;;;;;16.60;5.03;;;;;;;3.13;70.04;100230.61;125816;1101;22738;-57
2021/05/04 01:17:17;;;;;;;16.30;4.60;;;;;;;3.11;69.89;100233.02;125767;1101;22778;-56
2021/05/04 01:19:47;;;;;;;17.57;4.63;;;;;;;3.11;69.91;100231.05;125787;1096;25967;-57
2021/05/04 01:22:16;;;;;;;16.90;5.07;;;;;;;3.10;70.28;100229.48;125875;1096;27315;-54
2021/05/04 01:24:46;;;;;;;16.90;5.07;;;;;;;3.08;70.06;100229.13;125851;1101;22784;-56
2021/05/04 01:27:16;;;;;;;14.98;4.20;;;;;;;3.08;69.80;100215.34;125852;1101;22749;-56
2021/05/04 01:29:45;;;;;;;16.58;4.33;;;;;;;3.08;70.18;100215.34;125854;1101;22907;-56
2021/05/04 01:32:16;;;;;;;14.80;4.43;;;;;;;3.09;70.07;100210.61;125791;1101;22965;-55
2021/05/04 01:34:46;;;;;;;15.63;4.57;;;;;;;3.09;70.16;100202.34;125701;1102;22996;-57
2021/05/04 01:37:15;;;;;;;15.37;4.43;;;;;;;3.11;70.17;100199.92;125780;1101;22907;-57
2021/05/04 01:39:48;;;;;;;14.90;4.43;;;;;;;3.11;70.32;100194.41;125875;1101;22890;-58
2021/05/04 01:42:21;;;;;;;16.47;4.20;;;;;;;3.13;70.16;100187.27;125790;1097;26499;-56
2021/05/04 01:44:50;;;;;;;14.70;3.90;;;;;;;3.13;70.35;100195.54;125664;1101;22821;-57
2021/05/04 01:47:19;;;;;;;18.20;5.30;;;;;;;3.14;70.16;100190.80;125701;1101;22919;-58
2021/05/04 01:49:50;;;;;;;19.53;4.73;;;;;;;3.15;70.36;100181.31;125747;1101;22745;-57
2021/05/04 01:52:19;;;;;;;18.93;5.23;;;;;;;3.16;70.25;100180.12;125671;1096;22831;-56
2021/05/04 01:54:49;;;;;;;17.63;5.15;;;;;;;3.15;71.01;100168.30;125762;1096;22750;-57
2021/05/04 01:57:19;;;;;;;19.28;5.70;;;;;;;3.16;70.53;100163.56;125821;1096;27776;-57
2021/05/04 01:59:49;;;;;;;21.03;5.13;;;;;;;3.18;70.56;100161.16;126143;1101;22920;-58
2021/05/04 02:02:18;;;;;;;20.10;5.77;;;;;;;3.17;70.46;100154.07;125770;1097;22757;-58
2021/05/04 02:04:48;;;;;;;17.50;5.10;;;;;;;3.18;70.50;100147.36;125894;1101;22905;-58
2021/05/04 02:07:18;;;;;;;17.13;5.10;;;;;;;3.19;70.51;100144.16;126020;1097;26222;-58
2021/05/04 02:09:47;;;;;;;15.95;4.60;;;;;;;3.18;70.58;100144.60;125821;1101;24567;-58
2021/05/04 02:12:17;;;;;;;16.87;5.20;;;;;;;3.15;70.42;100145.45;125745;1096;27189;-57
2021/05/04 02:14:47;;;;;;;15.28;6.03;;;;;;;3.12;70.69;100138.05;125733;1101;24467;-57
2021/05/04 02:17:16;;;;;;;17.23;6.20;;;;;;;3.10;70.81;100134.95;125794;1096;27356;-57
2021/05/04 02:19:46;;;;;;;19.63;6.20;;;;;;;3.07;70.77;100135.80;125770;1101;22866;-57
2021/05/04 02:22:16;;;;;;;19.48;5.68;;;;;;;3.06;70.59;100126.74;126019;1097;28619;-58
2021/05/04 02:24:45;;;;;;;18.27;6.67;;;;;;;3.04;70.80;100118.13;125910;1101;22903;-58
2021/05/04 02:27:14;;;;;;;18.40;6.27;;;;;;;3.02;70.83;100119.78;125822;1101;23697;-58
2021/05/04 02:29:44;;;;;;;17.20;5.80;;;;;;;2.99;70.90;100121.41;125802;1101;22919;-58
2021/05/04 02:32:14;;;;;;;19.23;6.40;;;;;;;2.98;70.87;100127.37;125910;1096;26286;-58
2021/05/04 02:34:43;;;;;;;17.80;5.83;;;;;;;2.97;71.23;100117.53;125785;1096;27292;-57
2021/05/04 02:37:13;;;;;;;17.50;5.97;;;;;;;2.96;70.96;100119.50;125860;1101;22770;-56
2021/05/04 02:39:43;;;;;;;19.03;6.48;;;;;;;2.94;71.21;100110.89;125725;1101;22746;-57
2021/05/04 02:42:13;;;;;;;19.03;5.93;;;;;;;2.91;71.30;100116.50;126507;1086;26908;-55
2021/05/04 02:44:42;;;;;;;;;;;;;;;2.87;71.13;100107.53;126175;1101;22760;-57
2021/05/04 02:47:11;;;;;;;16.35;5.05;;;;;;;2.84;71.22;100116.65;125818;1101;21526;-57
2021/05/04 02:49:41;;;;;;;17.57;5.63;;;;;;;2.81;71.47;100107.28;126087;1096;22910;-58
2021/05/04 02:52:10;;;;;;;18.57;5.53;;;;;;;2.80;71.40;100102.17;125707;1104;22756;-58
2021/05/04 02:54:40;;;;;;;20.03;5.53;;;;;;;2.78;71.65;100099.07;125698;1096;23189;-58
2021/05/04 02:57:09;;;;;;;18.75;5.93;;;;;;;2.75;71.58;100097.19;125699;1101;25760;-57
2021/05/04 02:59:39;;;;;;;21.43;6.43;;;;;;;2.71;71.70;100088.98;125607;1096;22744;-57
2021/05/04 03:02:08;;;;;;;19.85;6.25;;;;;;;2.71;71.93;100082.72;125616;1101;25789;-57
2021/05/04 03:04:37;;;;;;;18.63;5.77;;;;;;;2.70;71.63;100073.67;125684;1096;26203;-58
2021/05/04 03:07:06;;;;;;;18.33;5.77;;;;;;;2.71;71.85;100072.45;125623;1101;22759;-56
2021/05/04 03:09:36;;;;;;;14.55;5.20;;;;;;;2.71;71.68;100066.93;125713;1102;22745;-57
2021/05/04 03:12:07;;;;;;;15.60;6.00;;;;;;;2.71;71.80;100066.93;125740;1096;22803;-56
2021/05/04 03:14:36;;;;;;;14.73;4.93;;;;;;;2.72;71.84;100068.50;125654;1102;24531;-56
2021/05/04 03:17:05;;;;;;;21.40;5.83;;;;;;;2.72;71.98;100070.47;125708;1101;22909;-58
2021/05/04 03:19:34;;;;;;;17.73;5.80;;;;;;;2.71;72.09;100069.69;125687;1096;27496;-58
2021/05/04 03:22:04;;;;;;;18.87;6.40;;;;;;;2.72;71.83;100062.98;125735;1101;22744;-59
2021/05/04 03:24:33;;;;;;;16.17;6.03;;;;;;;2.72;71.97;100059.45;125662;1102;22750;-58
2021/05/04 03:27:03;;;;;;;17.97;5.53;;;;;;;2.70;71.95;100059.88;125904;1096;24156;-57
2021/05/04 03:29:32;;;;;;;15.50;5.13;;;;;;;2.70;72.13;100065.40;125758;1096;26763;-58
2021/05/04 03:32:02;;;;;;;16.60;4.37;;;;;;;2.69;72.28;100050.05;125658;1102;22832;-55
2021/05/04 03:34:31;;;;;;;17.88;5.03;;;;;;;2.70;72.16;100048.86;125638;1102;22910;-57
2021/05/04 03:37:01;;;;;;;13.63;4.20;;;;;;;2.69;72.29;100049.30;125700;1096;26571;-58
2021/05/04 03:39:30;;;;;;;17.50;4.73;;;;;;;2.70;72.35;100045.32;125547;1101;22797;-56
2021/05/04 03:42:00;;;;;;;15.37;4.10;;;;;;;2.72;72.54;100042.91;125544;1102;24389;-56
2021/05/04 03:44:29;;;;;;;16.97;4.13;;;;;;;2.74;72.44;100044.03;125704;1096;22755;-59
2021/05/04 03:46:58;;;;;;;15.50;4.53;;;;;;;2.77;72.40;100043.19;125617;1096;27189;-58
2021/05/04 03:49:27;;;;;;;16.67;4.20;;;;;;;2.78;72.32;100044.72;125857;1096;22758;-59
2021/05/04 03:51:57;;;;;;;14.00;4.17;;;;;;;2.81;72.29;100037.58;125666;1101;22820;-58
2021/05/04 03:54:26;;;;;;;15.70;4.60;;;;;;;2.83;72.46;100032.41;125641;1101;22772;-56
2021/05/04 03:56:57;;;;;;;16.07;4.50;;;;;;;2.87;72.34;100027.58;125616;1096;22700;-58
2021/05/04 03:59:26;;;;;;;18.60;4.33;;;;;;;2.89;72.45;100028.70;125577;1096;22934;-58
2021/05/04 04:01:56;;;;;;;18.17;4.30;;;;;;;2.92;72.45;100027.83;125596;1096;22913;-58
2021/05/04 04:04:25;;;;;;;16.43;4.00;;;;;;;2.95;72.64;100021.46;125602;1102;22740;-58
2021/05/04 04:06:55;;;;;;;15.65;4.25;;;;;;;2.99;72.58;100019.38;125575;1096;27658;-58
2021/05/04 04:09:25;;;;;;;13.13;3.30;;;;;;;3.02;72.53;100015.74;125639;1104;22737;-57
2021/05/04 04:11:54;;;;;;;13.33;3.93;;;;;;;3.06;72.50;100015.67;125437;1104;22762;-56
2021/05/04 04:14:23;;;;;;;15.90;3.93;;;;;;;3.10;72.39;100016.35;125659;1096;27164;-57
2021/05/04 04:16:52;;;;;;;16.43;4.17;;;;;;;3.13;72.56;100018.23;125539;1096;27279;-63
2021/05/04 04:19:21;;;;;;;14.37;3.20;;;;;;;3.16;72.42;100012.64;125548;1101;22803;-64
2021/05/04 04:21:50;;;;;;;12.95;3.85;;;;;;;3.20;72.68;100007.80;125562;1101;22806;-58
2021/05/04 04:24:20;;;;;;;14.00;3.50;;;;;;;3.25;72.78;100001.73;125644;1102;22765;-58
2021/05/04 04:26:49;;;;;;;15.80;3.70;;;;;;;3.33;72.51;100002.34;125599;1096;26423;-58
2021/05/04 04:29:18;;;;;;;13.10;3.20;;;;;;;3.39;72.50;99997.84;125645;1101;24144;-56
2021/05/04 04:31:48;;;;;;;13.23;3.17;;;;;;;3.46;72.70;100000.38;125566;1096;27172;-57
2021/05/04 04:34:17;;;;;;;12.50;3.60;;;;;;;3.55;72.76;100003.29;125543;1103;22766;-58
2021/05/04 04:36:47;;;;;;;12.53;2.97;;;;;;;3.62;72.86;99994.79;125514;1104;22806;-57
2021/05/04 04:39:16;;;;;;;11.95;2.75;;;;;;;3.73;72.66;99980.69;125495;1101;22737;-57
2021/05/04 04:41:46;;;;;;;12.00;3.45;;;;;;;3.82;72.93;99984.36;125419;1096;27375;-56
2021/05/04 04:44:15;;;;;;;14.10;2.85;;;;;;;3.92;72.53;99982.48;126014;1096;27136;-60
2021/05/04 04:46:45;;;;;;;15.30;3.03;;;;;;;4.00;72.62;99984.60;125455;1104;22816;-60
2021/05/04 04:49:17;;;;;;;14.13;3.33;;;;;;;4.10;72.70;99977.19;125562;1102;22740;-60
2021/05/04 04:51:47;;;;;;;11.40;3.03;;;;;;;4.20;72.63;99978.10;125618;1096;22922;-60
2021/05/04 04:54:15;;;;;;;;;;;;;;;4.28;72.65;99971.13;125629;1096;26266;-60
2021/05/04 04:56:45;;;;;;;14.33;2.10;;;;;;;4.37;72.42;99968.45;125609;1096;25702;-62
2021/05/04 04:59:15;;;;;;;11.28;2.63;;;;;;;4.47;72.41;99961.84;125735;1096;27284;-55
2021/05/04 05:01:45;;;;;;;10.95;2.90;;;;;;;4.56;72.21;99959.16;125507;1104;22816;-58
2021/05/04 05:04:14;;;;;;;8.27;2.30;;;;;;;4.64;72.08;99952.16;125696;1102;22762;-56
2021/05/04 05:06:43;;;;;;;11.50;2.53;;;;;;;4.74;72.06;99951.03;125589;1101;22919;-57
2021/05/04 05:09:13;;;;;;;11.87;2.60;;;;;;;4.82;71.74;99942.05;125179;1104;22765;-57
2021/05/04 05:11:42;;;;;;;14.58;3.48;;;;;;;4.91;71.94;99935.83;125488;1104;22797;-63
2021/05/04 05:14:12;;;;;;;11.17;2.57;;;;;;;5.01;71.67;99939.47;125472;1102;22747;-55
2021/05/04 05:16:41;;;;;;;9.20;2.10;;;;;;;5.11;71.75;99936.30;125569;1102;22999;-55
2021/05/04 05:19:10;;;;;;;13.10;2.70;;;;;;;5.23;71.58;99924.42;125347;1104;22744;-57
2021/05/04 05:21:39;;;;;;;9.73;2.63;;;;;;;5.36;71.35;99927.88;126400;1101;22723;-58
2021/05/04 05:24:10;;;;;;;13.30;2.27;;;;;;;5.48;71.01;99932.57;125657;1096;24434;-58
2021/05/04 05:26:41;;;;;;;12.60;2.60;;;;;;;5.62;71.12;99917.44;125679;1096;27419;-57
2021/05/04 05:29:11;;;;;;;12.20;2.10;;;;;;;5.70;71.10;99916.72;125606;1101;22764;-58
2021/05/04 05:31:40;;;;;;;8.63;2.03;;;;;;;5.81;70.81;99915.54;125765;1101;22744;-57
2021/05/04 05:34:10;;;;;;;9.63;1.80;;;;;;;5.88;70.56;99906.97;125752;1096;22867;-58
2021/05/04 05:36:39;;;;;;;10.67;2.60;;;;;;;5.94;70.65;99897.61;125822;1101;22830;-58
2021/05/04 05:39:08;;;;;;;13.43;2.60;;;;;;;6.02;70.34;99892.58;125751;1101;22820;-59
2021/05/04 05:41:37;;;;;;;11.80;2.53;;;;;;;6.08;70.35;99899.06;125592;1104;22929;-58
2021/05/04 05:44:07;;;;;;;10.90;2.40;;;;;;;6.15;70.34;99888.45;125738;1102;22723;-59
2021/05/04 05:46:37;;;;;;;10.75;2.45;;;;;;;6.23;70.30;99883.38;125688;1096;27375;-58
2021/05/04 05:49:06;;;;;;;8.23;1.90;;;;;;;6.33;70.08;99876.66;125766;1102;22704;-59
2021/05/04 05:51:35;;;;;;;11.20;2.60;;;;;;;6.42;70.14;99873.88;125639;1097;22745;-58
2021/05/04 05:54:06;;;;;;;13.47;2.60;;;;;;;6.53;70.18;99874.22;125585;1096;27581;-58
2021/05/04 05:56:35;;;;;;;8.40;2.35;;;;;;;6.65;70.14;99864.98;125870;1101;24109;-57
2021/05/04 05:59:05;;;;;;;12.38;3.30;;;;;;;6.75;69.87;99858.20;125741;1096;27193;-58
2021/05/04 06:01:35;;;;;;;15.98;3.30;;;;;;;6.86;69.75;99854.97;125651;1104;22777;-58
2021/05/04 06:04:05;;;;;;;11.93;3.10;;;;;;;6.95;69.62;99850.17;125836;1101;22771;-58
2021/05/04 06:06:33;;;;;;;;;;;;;;;7.04;69.30;99852.17;125825;1101;22727;-58
2021/05/04 06:09:04;;;;;;;11.40;2.70;;;;;;;7.12;69.28;99856.16;125702;1102;21944;-58
2021/05/04 06:11:32;;;;;;;;;;;;;;;7.21;69.42;99851.39;125769;1104;24862;-59
2021/05/04 06:14:03;;;;;;;9.33;2.30;;;;;;;7.31;69.41;99841.80;125775;1102;21529;-57
2021/05/04 06:16:32;;;;;;;8.80;2.63;;;;;;;7.41;69.02;99836.98;125949;1096;22849;-58
2021/05/04 06:19:02;;;;;;;10.47;2.53;;;;;;;7.50;69.28;99833.41;125549;1096;22755;-57
2021/05/04 06:21:31;;;;;;;11.17;3.30;;;;;;;7.60;69.44;99823.80;125918;1097;22774;-58
2021/05/04 06:24:01;;;;;;;9.67;2.97;;;;;;;7.71;69.18;99821.30;125674;1101;23658;-59
2021/05/04 06:26:30;;;;;;;10.93;2.83;;;;;;;7.80;68.80;99821.27;125807;1104;22753;-58
2021/05/04 06:28:59;;;;;;;9.10;2.27;;;;;;;7.89;68.79;99810.88;125691;1104;22901;-58
2021/05/04 06:31:31;;;;;;;9.55;2.30;;;;;;;8.01;68.75;99801.53;125606;1096;22758;-58
2021/05/04 06:34:02;;;;;;;11.10;2.70;;;;;;;8.16;68.50;99796.04;125892;1101;22768;-58
2021/05/04 06:36:32;;;;;;;10.83;2.57;;;;;;;8.32;68.57;99794.90;125827;1101;22852;-56
2021/05/04 06:39:05;;;;;;;10.80;2.53;;;;;;;8.47;68.54;99790.13;125495;1096;22837;-57
2021/05/04 06:41:35;;;;;;;11.93;2.58;;;;;;;8.60;68.01;99787.88;125817;1101;22809;-57
2021/05/04 06:44:06;;;;;;;9.73;2.67;;;;;;;8.74;67.93;99767.64;125518;1097;22774;-57
2021/05/04 06:46:34;;;;;;;;;;;;;;;8.91;67.25;99768.73;125890;1102;22877;-58
2021/05/04 06:49:04;;;;;;;5.97;1.67;;;;;;;9.05;67.18;99781.10;125698;1101;21467;-58
2021/05/04 06:51:34;;;;;;;9.00;2.30;;;;;;;9.20;67.51;99776.31;125906;1101;22822;-59
2021/05/04 06:54:04;;;;;;;9.90;3.00;;;;;;;9.33;67.22;99763.61;125816;1101;22878;-56
2021/05/04 06:56:33;;;;;;;9.95;2.53;;;;;;;9.47;67.25;99768.42;125811;1102;23335;-59
2021/05/04 06:59:05;;;;;;;8.67;2.43;;;;;;;9.60;66.88;99777.21;125675;1104;22964;-58
2021/05/04 07:01:35;;;;;;;6.40;2.10;;;;;;;9.70;66.94;99767.48;125728;1096;29032;-59
2021/05/04 07:04:05;;;;;;;7.83;2.03;;;;;;;9.85;66.91;99767.44;125830;1102;22775;-58
2021/05/04 07:06:35;;;;;;;9.80;2.57;;;;;;;9.99;67.02;99749.91;125650;1104;22839;-57
2021/05/04 07:09:05;;;;;;;10.15;3.25;;;;;;;10.13;65.45;99765.84;125692;1101;22748;-60
2021/05/04 07:11:35;;;;;;;11.20;3.13;;;;;;;10.26;65.50;99757.88;125562;1096;25858;-58
2021/05/04 07:14:06;;;;;;;10.23;2.57;;;;;;;10.39;65.70;99749.16;125584;1096;26301;-57
2021/05/04 07:16:35;;;;;;;9.60;2.93;;;;;;;10.48;64.85;99749.02;125808;1101;22815;-58
2021/05/04 07:19:05;;;;;;;10.75;3.05;;;;;;;10.56;65.29;99748.10;125849;1104;22834;-59
2021/05/04 07:21:34;;;;;;;9.20;2.27;;;;;;;10.70;64.86;99743.67;125677;1104;22767;-58
2021/05/04 07:24:05;;;;;;;8.20;2.90;;;;;;;10.85;65.02;99743.56;125723;1096;26817;-58
2021/05/04 07:26:35;;;;;;;11.33;3.10;;;;;;;10.98;63.98;99738.37;126148;1096;25976;-59
2021/05/04 07:29:05;;;;;;;9.53;2.78;;;;;;;11.11;63.36;99744.34;125879;1096;25977;-57
2021/05/04 07:31:35;;;;;;;12.25;3.23;;;;;;;11.21;62.28;99737.31;125694;1096;22758;-57
2021/05/04 07:34:04;;;;;;;9.03;2.90;;;;;;;11.32;61.87;99726.20;125825;1101;22737;-58
2021/05/04 07:36:34;;;;;;;7.30;2.18;;;;;;;11.39;61.98;99720.94;125933;1104;23521;-59
2021/05/04 07:39:06;;;;;;;9.95;2.75;;;;;;;11.45;61.59;99718.17;125872;1101;22812;-59
2021/05/04 07:41:36;;;;;;;7.00;2.60;;;;;;;11.53;62.38;99716.45;125786;1101;24821;-58
2021/05/04 07:44:07;;;;;;;8.67;2.87;;;;;;;11.68;62.35;99711.50;125833;1104;22986;-58
2021/05/04 07:46:36;;;;;;;9.60;2.65;;;;;;;11.84;61.89;99710.83;125757;1104;22754;-57
2021/05/04 07:49:11;;;;;;;10.33;3.20;;;;;;;12.00;61.56;99712.19;125792;1101;22751;-58
2021/05/04 07:51:41;;;;;;;8.03;2.70;;;;;;;12.13;60.34;99706.89;125947;1101;22778;-60
2021/05/04 07:54:12;;;;;;;8.98;2.98;;;;;;;12.22;60.70;99700.31;125665;1104;22741;-59
2021/05/04 07:56:41;;;;;;;9.17;2.60;;;;;;;12.29;59.73;99688.64;125662;1104;22994;-58
2021/05/04 07:59:11;;;;;;;8.17;2.67;;;;;;;12.30;58.28;99688.13;125893;1102;22744;-60
2021/05/04 08:01:41;;;;;;;8.23;2.40;;;;;;;12.36;59.46;99682.54;126106;1096;24549;-58
2021/05/04 08:04:11;;;;;;;13.50;2.90;;;;;;;12.43;59.61;99684.86;125933;1101;24438;-59
2021/05/04 08:06:41;;;;;;;8.93;2.83;;;;;;;12.51;58.63;99677.50;125847;1104;22737;-59
2021/05/04 08:09:11;;;;;;;11.85;2.80;;;;;;;12.57;57.53;99690.24;125849;1096;22887;-59
2021/05/04 08:11:40;;;;;;;9.00;2.45;;;;;;;12.62;58.26;99672.67;125966;1101;22826;-58
2021/05/04 08:14:10;;;;;;;9.93;2.57;;;;;;;12.67;58.26;99673.95;125841;1096;27307;-58
2021/05/04 08:16:40;;;;;;;8.40;2.90;;;;;;;12.73;57.68;99664.30;125824;1096;23003;-59
2021/05/04 08:19:11;;;;;;;9.40;3.05;;;;;;;12.79;56.75;99667.86;125883;1101;22771;-58
2021/05/04 08:21:43;;;;;;;9.37;2.57;;;;;;;12.85;56.96;99667.86;125793;1101;22785;-59
2021/05/04 08:24:13;;;;;;;7.70;1.73;;;;;;;12.89;56.46;99659.99;125921;1096;25908;-59
2021/05/04 08:26:42;;;;;;;9.63;2.48;;;;;;;12.96;56.19;99653.86;125861;1096;22778;-59
2021/05/04 08:29:13;;;;;;;9.73;2.43;;;;;;;13.00;56.19;99654.38;125714;1096;22735;-59
2021/05/04 08:31:42;;;;;;;10.08;2.65;;;;;;;13.08;56.32;99651.88;125821;1102;22758;-58
2021/05/04 08:34:12;;;;;;;5.68;2.03;;;;;;;13.11;56.09;99637.59;125668;1096;25726;-58
2021/05/04 08:36:42;;;;;;;9.70;2.90;;;;;;;13.18;55.61;99639.12;125834;1104;22929;-58
2021/05/04 08:39:12;;;;;;;7.93;1.80;;;;;;;13.23;55.29;99622.28;125734;1104;23332;-59
2021/05/04 08:41:43;;;;;;;7.97;2.03;;;;;;;13.31;54.88;99620.48;125927;1102;22780;-58
2021/05/04 08:44:18;;;;;;;6.10;2.00;;;;;;;13.38;55.17;99607.98;125834;1104;24589;-60
2021/05/04 08:46:49;;;;;;;8.43;1.90;;;;;;;13.45;54.02;99604.66;125847;1096;26234;-59
2021/05/04 08:49:20;;;;;;;8.20;2.20;;;;;;;13.51;54.33;99603.34;125757;1096;22815;-58
2021/05/04 08:51:51;;;;;;;9.40;2.35;;;;;;;13.56;53.54;99599.00;125744;1104;22747;-58
2021/05/04 08:54:20;;;;;;;7.80;2.30;;;;;;;13.63;53.51;99596.45;125808;1104;22936;-59
2021/05/04 08:56:50;;;;;;;6.68;1.70;;;;;;;13.73;52.69;99586.45;125656;1096;22767;-61
2021/05/04 08:59:19;;;;;;;6.13;1.58;;;;;;;13.78;51.89;99587.69;125762;1104;22765;-58
2021/05/04 09:01:49;;;;;;;6.03;1.30;;;;;;;13.79;51.75;99580.81;125674;1104;22809;-58
2021/05/04 09:04:33;;;;;;;6.28;1.35;;;;;;;13.84;50.94;99584.88;125828;1104;22771;-58
2021/05/04 09:07:23;;;;;;;6.10;1.37;;;;;;;13.87;51.61;99576.18;125715;1104;22802;-58
2021/05/04 09:10:08;;;;;;;3.80;1.28;;;;;;;13.95;51.26;99570.77;125823;1104;22771;-59
2021/05/04 09:12:43;;;;;;;4.83;1.10;;;;;;;14.05;51.63;99569.95;125745;1104;22741;-60
2021/05/04 09:15:55;;;;;;;6.37;1.37;;;;;;;14.22;51.13;99559.39;125585;1104;22877;-59
2021/05/04 09:21:36;;;;;;;6.45;1.30;;;;;;;14.48;49.74;99550.57;125607;1104;22742;-58
2021/05/04 09:24:39;;;;;;;5.90;1.20;;;;;;;14.59;49.21;99547.65;125659;1099;25749;-58
2021/05/04 09:27:11;;;;;;;3.90;1.20;;;;;;;14.64;48.84;99540.47;125287;1108;23153;-59
2021/05/04 09:29:43;;;;;;;5.25;1.60;;;;;;;14.69;49.26;99534.79;125331;1103;26238;-58
2021/05/04 09:32:19;;;;;;;5.20;1.33;;;;;;;14.77;49.92;99538.58;125332;1108;23003;-58
2021/05/04 09:34:51;;;;;;;7.30;1.53;;;;;;;14.82;48.33;99523.70;125263;1103;26242;-58
2021/05/04 09:37:35;;;;;;;5.20;1.35;;;;;;;14.83;48.81;99519.61;125372;1103;27195;-59
2021/05/04 09:40:27;;;;;;;6.60;1.40;;;;;;;14.86;48.81;99510.12;125426;1102;25898;-59
2021/05/04 09:43:08;;;;;;;5.50;1.40;;;;;;;14.89;48.89;99500.64;125169;1107;22999;-59
2021/05/04 09:45:40;;;;;;;9.33;1.20;;;;;;;14.95;48.01;99492.15;125282;1103;26263;-57
2021/05/04 09:48:22;;;;;;;3.87;1.00;;;;;;;14.92;47.05;99488.33;125188;1108;24374;-59
2021/05/04 09:50:57;;;;;;;4.43;1.40;;;;;;;14.89;46.98;99486.59;125246;1108;22797;-59
2021/05/04 09:53:34;;;;;;;7.30;1.30;;;;;;;14.87;47.26;99477.93;125289;1107;22848;-59
2021/05/04 09:56:05;;;;;;;5.37;1.47;;;;;;;14.88;47.55;99464.62;125307;1102;26461;-59
2021/05/04 09:58:40;;;;;;;6.00;1.35;;;;;;;14.92;46.95;99453.88;125420;1100;22773;-59
2021/05/04 10:01:12;;;;;;;6.23;1.53;;;;;;;14.96;47.59;99451.52;125765;1104;22768;-59
2021/05/04 10:03:43;;;;;;;6.77;1.60;;;;;;;15.00;46.53;99449.18;125742;1104;22758;-58
2021/05/04 10:06:14;;;;;;;3.90;1.20;;;;;;;15.04;47.01;99435.59;125829;1101;22758;-59
2021/05/04 10:08:44;;;;;;;4.70;1.30;;;;;;;15.13;46.69;99435.20;125775;1096;26662;-59
2021/05/04 10:11:17;;;;;;;7.40;1.55;;;;;;;15.22;46.16;99426.41;125729;1104;22910;-59
2021/05/04 10:13:53;;;;;;;5.13;1.47;;;;;;;15.30;45.95;99419.66;125791;1096;26222;-60
2021/05/04 10:16:25;;;;;;;5.60;1.40;;;;;;;15.37;45.63;99433.09;125630;1097;27375;-61
2021/05/04 10:18:59;;;;;;;6.07;1.83;;;;;;;15.45;45.85;99412.84;125890;1096;25483;-57
2021/05/04 10:21:29;;;;;;;7.55;1.80;;;;;;;15.49;46.32;99427.36;125741;1096;25755;-58
2021/05/04 10:24:01;;;;;;;8.83;1.70;;;;;;;15.54;45.05;99406.84;125821;1096;26698;-62
2021/05/04 10:26:33;;;;;;;8.00;1.80;;;;;;;15.57;45.55;99391.69;125848;1101;24251;-58
2021/05/04 10:29:08;;;;;;;5.90;1.70;;;;;;;15.63;45.69;99392.37;125708;1096;22744;-59
2021/05/04 10:31:39;;;;;;;7.15;1.45;;;;;;;15.65;43.82;99387.73;126007;1096;26209;-59
2021/05/04 10:34:28;;;;;;;6.57;1.30;;;;;;;15.68;46.09;99388.73;125798;1102;22747;-60
2021/05/04 10:36:59;;;;;;;6.03;1.47;;;;;;;15.73;45.76;99394.26;125855;1096;22736;-59
2021/05/04 10:39:40;;;;;;;5.80;1.45;;;;;;;15.79;46.25;99378.05;125918;1101;22822;-59
2021/05/04 10:42:13;;;;;;;7.37;1.70;;;;;;;15.87;46.16;99378.94;125946;1096;28175;-66
2021/05/04 10:45:21;;;;;;;4.75;1.60;;;;;;;15.87;45.92;99367.67;125808;1101;22747;-59
2021/05/04 10:48:03;;;;;;;4.70;1.40;;;;;;;15.88;46.47;99366.39;125383;1100;26605;-57
2021/05/04 10:50:48;;;;;;;6.80;1.80;;;;;;;15.93;45.58;99364.79;125449;1107;22751;-59
2021/05/04 10:53:19;;;;;;;8.93;1.50;;;;;;;15.90;45.94;99355.36;125171;1107;22838;-59
2021/05/04 10:56:13;;;;;;;4.95;1.30;;;;;;;15.95;46.12;99348.86;125291;1099;23572;-59
2021/05/04 10:58:51;;;;;;;5.73;1.90;;;;;;;16.04;46.88;99347.69;125283;1107;22781;-58
2021/05/04 11:01:20;;;;;;;5.90;1.10;;;;;;;16.13;46.51;99333.98;125191;1100;22936;-57
2021/05/04 11:03:55;;;;;;;6.10;1.43;;;;;;;16.15;46.25;99322.16;125215;1107;22758;-60
2021/05/04 11:06:46;;;;;;;5.60;1.50;;;;;;;16.18;46.25;99321.07;125211;1107;22803;-59
2021/05/04 11:09:20;;;;;;;5.90;1.50;;;;;;;16.24;46.12;99315.36;125288;1107;22770;-58
2021/05/04 11:11:53;;;;;;;6.70;1.45;;;;;;;16.23;45.82;99317.41;125350;1105;24438;-58
2021/05/04 11:14:33;;;;;;;6.43;1.50;;;;;;;16.20;45.61;99307.97;125248;1105;23333;-58
2021/05/04 11:17:22;;;;;;;5.55;1.25;;;;;;;16.22;45.74;99307.45;125309;1107;23221;-58
2021/05/04 11:19:51;;;;;;;7.90;1.67;;;;;;;16.23;45.42;99289.24;125160;1107;24636;-59
2021/05/04 11:22:25;;;;;;;4.78;1.40;;;;;;;16.24;45.98;99282.33;125109;1107;25568;-60
2021/05/04 11:24:57;;;;;;;7.60;1.50;;;;;;;16.27;45.62;99288.91;125652;1101;22758;-57
2021/05/04 11:27:33;;;;;;;5.73;1.60;;;;;;;16.26;45.49;99282.55;125604;1096;25951;-60
2021/05/04 11:30:06;;;;;;;5.65;1.45;;;;;;;16.26;45.53;99267.70;125850;1102;22758;-59
2021/05/04 11:32:46;;;;;;;5.57;1.30;;;;;;;16.26;45.15;99274.09;125746;1104;24546;-58
2021/05/04 11:35:16;;;;;;;;;;;;;;;16.27;45.98;99274.83;125846;1096;27268;-59
2021/05/04 11:37:50;;;;;;;5.35;1.55;;;;;;;16.27;45.77;99255.88;125837;1102;21617;-59
2021/05/04 11:40:23;;;;;;;5.20;1.65;;;;;;;16.28;46.36;99257.41;125981;1102;22745;-61
2021/05/04 11:42:55;;;;;;;5.35;1.50;;;;;;;16.31;46.16;99250.68;125851;1102;22730;-61
2021/05/04 11:45:28;;;;;;;6.35;1.45;;;;;;;16.34;45.63;99258.06;125830;1096;22769;-58
2021/05/04 11:48:00;;;;;;;7.00;1.90;;;;;;;16.32;46.26;99235.31;125947;1101;22745;-59